Главная страница
METAR-TAF:

METAR-TAF

Аэропорты :

Уэйк, США

широта: 19-17N, долгота: 166-39E, высота над уровнем моря: 4 м

Текущие метеонаблюдения

Эта сводка был подготовлена 30 минут назад, в 02:55 UTC
Ветер 11 Узел от восточный с порывами до 14 Узел
Температура 32°C
Влажность 63%
Давление 1014 hPa
Видимость: 9.7 км
мгла

METAR: PWAK 240255Z AUTO 08011G14KT 6SM HZ M 32/24 A2994 RMK AO2 SLP145 T03160242 57010 CHINO RWY28 $

Время: 15:25 (03:25 UTC)

Прогноз

Эта сводка был подготовлена 5 часа и 25 минут назад, в 22:00 UTC
Прогноз действительный с 23-го 22 UTC до 25-го 04 UTC
Ветер 10 Узел от восточный
Видимость 10 км и более
Отдельные облака на высоте 2000 фута

TAF: PWAK 232200Z 2322/2504 09010KT 9999 SCT020 QNH2992INS TX32/2401Z TN27/2417Z

Метеонаблюдения и прогнозы для более 4000 аэропортов (сводки METAR и TAF).

Имеющиеся станции представлены на карте желтыми и красными точками.

Чтобы увидеть название станции, наведите на нее мышь.

Затем щелкните, чтобы увидеть метеонаблюдения и метеопрогнозы.

Управление картой: чтобы увеличить масштаб, щелкните зеленые кнопки с черным крестиком; чтобы уменьшить масштаб, щелкните зеленую кнопку с тире; для просмотра соседних карт щелкайте зеленые стрелки.


METAR-TAF: